sensor_id;sensor_type;location;lat;lon;timestamp;pressure;altitude;pressure_sealevel;temperature;humidity
18509;BME280;9383;50.928;12.116;2023-02-01T00:00:53;98854.47;;;4.16;87.65
18509;BME280;9383;50.928;12.116;2023-02-01T00:03:21;98856.19;;;4.18;88.11
18509;BME280;9383;50.928;12.116;2023-02-01T00:05:59;98847.47;;;4.16;87.19
18509;BME280;9383;50.928;12.116;2023-02-01T00:08:26;98849.22;;;4.16;87.16
18509;BME280;9383;50.928;12.116;2023-02-01T00:11:08;98844.84;;;4.18;86.70
18509;BME280;9383;50.928;12.116;2023-02-01T00:13:36;98850.09;;;4.18;86.64
18509;BME280;9383;50.928;12.116;2023-02-01T00:16:09;98846.59;;;4.16;86.48
18509;BME280;9383;50.928;12.116;2023-02-01T00:18:37;98844.00;;;4.14;85.68
18509;BME280;9383;50.928;12.116;2023-02-01T00:21:03;98848.41;;;4.12;85.24
18509;BME280;9383;50.928;12.116;2023-02-01T00:23:33;98835.28;;;4.12;85.51
18509;BME280;9383;50.928;12.116;2023-02-01T00:26:02;98844.94;;;4.07;85.60
18509;BME280;9383;50.928;12.116;2023-02-01T00:28:29;98842.34;;;4.05;85.35
18509;BME280;9383;50.928;12.116;2023-02-01T00:30:59;98847.59;;;4.02;84.93
18509;BME280;9383;50.928;12.116;2023-02-01T00:33:27;98845.00;;;3.99;85.67
18509;BME280;9383;50.928;12.116;2023-02-01T00:36:06;98848.53;;;3.97;85.91
18509;BME280;9383;50.928;12.116;2023-02-01T00:38:35;98855.53;;;3.94;85.84
18509;BME280;9383;50.928;12.116;2023-02-01T00:41:14;98853.84;;;3.92;85.44
18509;BME280;9383;50.928;12.116;2023-02-01T00:43:44;98853.84;;;3.89;85.32
18509;BME280;9383;50.928;12.116;2023-02-01T00:46:13;98860.88;;;3.87;85.56
18509;BME280;9383;50.928;12.116;2023-02-01T00:48:40;98859.16;;;3.83;85.48
18509;BME280;9383;50.928;12.116;2023-02-01T00:51:13;98853.97;;;3.79;85.40
18509;BME280;9383;50.928;12.116;2023-02-01T00:53:40;98860.97;;;3.76;85.56
18509;BME280;9383;50.928;12.116;2023-02-01T00:56:07;98858.38;;;3.71;85.59
18509;BME280;9383;50.928;12.116;2023-02-01T00:58:34;98860.16;;;3.69;85.15
18509;BME280;9383;50.928;12.116;2023-02-01T01:01:13;98863.66;;;3.66;85.51
18509;BME280;9383;50.928;12.116;2023-02-01T01:03:43;98864.56;;;3.64;85.18
18509;BME280;9383;50.928;12.116;2023-02-01T01:06:15;98858.44;;;3.62;85.40
18509;BME280;9383;50.928;12.116;2023-02-01T01:08:42;98857.56;;;3.63;84.83
18509;BME280;9383;50.928;12.116;2023-02-01T01:11:11;98864.56;;;3.64;85.27
18509;BME280;9383;50.928;12.116;2023-02-01T01:13:38;98855.84;;;3.63;84.87
18509;BME280;9383;50.928;12.116;2023-02-01T01:16:06;98858.44;;;3.63;84.93
18509;BME280;9383;50.928;12.116;2023-02-01T01:18:33;98859.31;;;3.64;84.87
18509;BME280;9383;50.928;12.116;2023-02-01T01:21:01;98847.97;;;3.63;84.60
18509;BME280;9383;50.928;12.116;2023-02-01T01:23:28;98863.66;;;3.65;84.75
18509;BME280;9383;50.928;12.116;2023-02-01T01:25:54;98859.31;;;3.65;84.86
18509;BME280;9383;50.928;12.116;2023-02-01T01:28:22;98861.03;;;3.68;84.65
18509;BME280;9383;50.928;12.116;2023-02-01T01:30:48;98850.56;;;3.68;84.75
18509;BME280;9383;50.928;12.116;2023-02-01T01:33:15;98843.53;;;3.69;84.63
18509;BME280;9383;50.928;12.116;2023-02-01T01:35:41;98846.19;;;3.67;85.07
18509;BME280;9383;50.928;12.116;2023-02-01T01:38:10;98847.03;;;3.68;85.23
18509;BME280;9383;50.928;12.116;2023-02-01T01:40:37;98854.91;;;3.68;85.01
18509;BME280;9383;50.928;12.116;2023-02-01T01:43:13;98848.81;;;3.67;85.36
18509;BME280;9383;50.928;12.116;2023-02-01T01:45:40;98846.19;;;3.65;85.75
18509;BME280;9383;50.928;12.116;2023-02-01T01:48:19;98854.91;;;3.66;85.74
18509;BME280;9383;50.928;12.116;2023-02-01T01:50:52;98841.81;;;3.66;86.09
18509;BME280;9383;50.928;12.116;2023-02-01T01:53:25;98850.56;;;3.65;85.54
18509;BME280;9383;50.928;12.116;2023-02-01T01:55:53;98838.34;;;3.64;85.70
18509;BME280;9383;50.928;12.116;2023-02-01T01:58:26;98845.31;;;3.65;85.58
18509;BME280;9383;50.928;12.116;2023-02-01T02:00:54;98842.72;;;3.63;86.34
18509;BME280;9383;50.928;12.116;2023-02-01T02:03:23;98836.59;;;3.63;86.28
18509;BME280;9383;50.928;12.116;2023-02-01T02:05:54;98832.25;;;3.62;86.11
18509;BME280;9383;50.928;12.116;2023-02-01T02:08:25;98837.47;;;3.63;86.54
18509;BME280;9383;50.928;12.116;2023-02-01T02:10:53;98824.38;;;3.62;86.20
18509;BME280;9383;50.928;12.116;2023-02-01T02:13:35;98824.38;;;3.62;86.20
18509;BME280;9383;50.928;12.116;2023-02-01T02:16:15;98831.34;;;3.63;86.18
18509;BME280;9383;50.928;12.116;2023-02-01T02:18:52;98813.00;;;3.63;86.28
18509;BME280;9383;50.928;12.116;2023-02-01T02:21:25;98813.91;;;3.62;86.28
18509;BME280;9383;50.928;12.116;2023-02-01T02:30:09;98806.03;;;3.63;86.13
18509;BME280;9383;50.928;12.116;2023-02-01T02:38:38;98784.16;;;3.63;85.99
18509;BME280;9383;50.928;12.116;2023-02-01T02:41:18;98778.03;;;3.64;85.58
18509;BME280;9383;50.928;12.116;2023-02-01T02:47:24;98788.53;;;3.64;85.48
18509;BME280;9383;50.928;12.116;2023-02-01T02:53:06;98780.66;;;3.64;85.20
18509;BME280;9383;50.928;12.116;2023-02-01T02:55:55;98780.66;;;3.64;85.74
18509;BME280;9383;50.928;12.116;2023-02-01T02:58:43;98778.06;;;3.62;85.00
18509;BME280;9383;50.928;12.116;2023-02-01T03:01:29;98771.94;;;3.62;84.87
18509;BME280;9383;50.928;12.116;2023-02-01T03:04:15;98777.19;;;3.62;85.01
18509;BME280;9383;50.928;12.116;2023-02-01T03:06:44;98774.56;;;3.62;85.30
18509;BME280;9383;50.928;12.116;2023-02-01T03:09:21;98785.94;;;3.61;85.07
18509;BME280;9383;50.928;12.116;2023-02-01T03:11:55;98785.09;;;3.60;85.15
18509;BME280;9383;50.928;12.116;2023-02-01T03:14:46;98785.09;;;3.57;84.30
18509;BME280;9383;50.928;12.116;2023-02-01T03:17:19;98794.72;;;3.57;84.19
18509;BME280;9383;50.928;12.116;2023-02-01T03:19:51;98795.56;;;3.59;83.96
18509;BME280;9383;50.928;12.116;2023-02-01T03:22:21;98792.97;;;3.57;84.06
18509;BME280;9383;50.928;12.116;2023-02-01T03:24:56;98789.50;;;3.57;83.71
18509;BME280;9383;50.928;12.116;2023-02-01T03:27:40;98774.59;;;3.57;84.21
18509;BME280;9383;50.928;12.116;2023-02-01T03:30:22;98789.50;;;3.57;83.77
18509;BME280;9383;50.928;12.116;2023-02-01T03:32:54;98771.13;;;3.57;83.67
18509;BME280;9383;50.928;12.116;2023-02-01T03:35:48;98765.91;;;3.55;83.26
18509;BME280;9383;50.928;12.116;2023-02-01T03:40:57;98775.53;;;3.55;82.60
18509;BME280;9383;50.928;12.116;2023-02-01T03:43:30;98772.03;;;3.56;82.77
18509;BME280;9383;50.928;12.116;2023-02-01T03:46:03;98761.53;;;3.56;82.21
18509;BME280;9383;50.928;12.116;2023-02-01T03:48:33;98759.78;;;3.56;81.42
18509;BME280;9383;50.928;12.116;2023-02-01T03:51:04;98753.66;;;3.57;81.64
18509;BME280;9383;50.928;12.116;2023-02-01T03:53:35;98741.41;;;3.58;81.34
18509;BME280;9383;50.928;12.116;2023-02-01T03:56:04;98735.28;;;3.59;81.36
18509;BME280;9383;50.928;12.116;2023-02-01T03:58:32;98734.41;;;3.58;81.59
18509;BME280;9383;50.928;12.116;2023-02-01T04:01:00;98723.03;;;3.61;82.21
18509;BME280;9383;50.928;12.116;2023-02-01T04:03:27;98740.50;;;3.62;82.40
18509;BME280;9383;50.928;12.116;2023-02-01T04:05:55;98745.75;;;3.62;81.96
18509;BME280;9383;50.928;12.116;2023-02-01T04:08:23;98746.63;;;3.62;82.54
18509;BME280;9383;50.928;12.116;2023-02-01T04:10:49;98735.25;;;3.62;82.62
18509;BME280;9383;50.928;12.116;2023-02-01T04:13:16;98734.41;;;3.61;82.58
18509;BME280;9383;50.928;12.116;2023-02-01T04:15:43;98735.25;;;3.62;82.74
18509;BME280;9383;50.928;12.116;2023-02-01T04:18:10;98733.53;;;3.61;82.81
18509;BME280;9383;50.928;12.116;2023-02-01T04:20:37;98738.75;;;3.61;83.35
18509;BME280;9383;50.928;12.116;2023-02-01T04:23:04;98735.28;;;3.60;83.33
18509;BME280;9383;50.928;12.116;2023-02-01T04:25:31;98739.66;;;3.61;83.71
18509;BME280;9383;50.928;12.116;2023-02-01T04:27:59;98738.75;;;3.61;83.98
18509;BME280;9383;50.928;12.116;2023-02-01T04:30:26;98729.16;;;3.60;83.99
18509;BME280;9383;50.928;12.116;2023-02-01T04:32:52;98733.53;;;3.61;84.03
18509;BME280;9383;50.928;12.116;2023-02-01T04:35:20;98726.53;;;3.61;84.02
18509;BME280;9383;50.928;12.116;2023-02-01T04:37:47;98723.03;;;3.61;84.27
18509;BME280;9383;50.928;12.116;2023-02-01T04:40:14;98718.69;;;3.61;84.74
18509;BME280;9383;50.928;12.116;2023-02-01T04:42:41;98714.28;;;3.62;84.14
18509;BME280;9383;50.928;12.116;2023-02-01T04:45:08;98709.94;;;3.62;84.58
18509;BME280;9383;50.928;12.116;2023-02-01T04:47:35;98714.28;;;3.62;84.36
18509;BME280;9383;50.928;12.116;2023-02-01T04:50:02;98706.41;;;3.62;84.98
18509;BME280;9383;50.928;12.116;2023-02-01T04:52:30;98696.81;;;3.62;84.60
18509;BME280;9383;50.928;12.116;2023-02-01T04:54:57;98691.56;;;3.62;84.72
18509;BME280;9383;50.928;12.116;2023-02-01T04:57:25;98690.69;;;3.63;85.02
18509;BME280;9383;50.928;12.116;2023-02-01T04:59:53;98694.16;;;3.64;85.24
18509;BME280;9383;50.928;12.116;2023-02-01T05:02:20;98686.34;;;3.62;85.50
18509;BME280;9383;50.928;12.116;2023-02-01T05:04:46;98682.84;;;3.62;86.60
18509;BME280;9383;50.928;12.116;2023-02-01T05:07:13;98682.00;;;3.60;88.48
18509;BME280;9383;50.928;12.116;2023-02-01T05:09:41;98668.00;;;3.62;87.99
18509;BME280;9383;50.928;12.116;2023-02-01T05:12:10;98661.00;;;3.61;88.62
18509;BME280;9383;50.928;12.116;2023-02-01T05:14:55;98658.41;;;3.60;88.97
18509;BME280;9383;50.928;12.116;2023-02-01T05:17:22;98654.88;;;3.59;89.03
18509;BME280;9383;50.928;12.116;2023-02-01T05:19:49;98649.66;;;3.59;89.33
18509;BME280;9383;50.928;12.116;2023-02-01T05:22:16;98644.44;;;3.56;89.55
18509;BME280;9383;50.928;12.116;2023-02-01T05:24:44;98659.31;;;3.54;89.92
18509;BME280;9383;50.928;12.116;2023-02-01T05:27:11;98663.69;;;3.55;89.54
18509;BME280;9383;50.928;12.116;2023-02-01T05:29:38;98658.44;;;3.54;90.16
18509;BME280;9383;50.928;12.116;2023-02-01T05:32:06;98661.09;;;3.52;89.80
18509;BME280;9383;50.928;12.116;2023-02-01T05:34:33;98660.22;;;3.51;89.18
18509;BME280;9383;50.928;12.116;2023-02-01T05:37:01;98659.38;;;3.49;89.59
18509;BME280;9383;50.928;12.116;2023-02-01T05:39:28;98659.41;;;3.46;89.39
18509;BME280;9383;50.928;12.116;2023-02-01T05:41:55;98648.97;;;3.43;89.41
18509;BME280;9383;50.928;12.116;2023-02-01T05:44:22;98650.72;;;3.43;89.24
18509;BME280;9383;50.928;12.116;2023-02-01T05:46:49;98653.34;;;3.43;89.52
18509;BME280;9383;50.928;12.116;2023-02-01T05:49:17;98644.63;;;3.39;89.40
18509;BME280;9383;50.928;12.116;2023-02-01T05:51:46;98647.25;;;3.39;89.13
18509;BME280;9383;50.928;12.116;2023-02-01T05:54:12;98645.56;;;3.36;89.04
18509;BME280;9383;50.928;12.116;2023-02-01T05:56:40;98635.09;;;3.35;89.40
18509;BME280;9383;50.928;12.116;2023-02-01T05:59:09;98637.75;;;3.32;89.54
18509;BME280;9383;50.928;12.116;2023-02-01T06:01:36;98638.59;;;3.32;89.67
18509;BME280;9383;50.928;12.116;2023-02-01T06:04:03;98636.00;;;3.31;89.37
18509;BME280;9383;50.928;12.116;2023-02-01T06:06:32;98639.50;;;3.28;89.85
18509;BME280;9383;50.928;12.116;2023-02-01T06:09:00;98631.66;;;3.27;89.77
18509;BME280;9383;50.928;12.116;2023-02-01T06:11:27;98627.34;;;3.24;89.94
18509;BME280;9383;50.928;12.116;2023-02-01T06:14:12;98640.44;;;3.22;90.23
18509;BME280;9383;50.928;12.116;2023-02-01T06:16:40;98636.09;;;3.21;90.11
18509;BME280;9383;50.928;12.116;2023-02-01T06:19:07;98632.63;;;3.19;89.92
18509;BME280;9383;50.928;12.116;2023-02-01T06:21:37;98629.16;;;3.17;89.69
18509;BME280;9383;50.928;12.116;2023-02-01T06:24:04;98625.66;;;3.18;90.05
18509;BME280;9383;50.928;12.116;2023-02-01T06:26:42;98629.16;;;3.17;89.76
18509;BME280;9383;50.928;12.116;2023-02-01T06:29:20;98630.00;;;3.18;89.87
18509;BME280;9383;50.928;12.116;2023-02-01T06:31:47;98631.78;;;3.17;89.76
18509;BME280;9383;50.928;12.116;2023-02-01T06:34:14;98616.91;;;3.18;89.30
18509;BME280;9383;50.928;12.116;2023-02-01T06:36:43;98624.78;;;3.19;89.53
18509;BME280;9383;50.928;12.116;2023-02-01T06:39:12;98623.88;;;3.20;88.92
18509;BME280;9383;50.928;12.116;2023-02-01T06:41:49;98614.28;;;3.19;89.45
18509;BME280;9383;50.928;12.116;2023-02-01T06:44:16;98624.72;;;3.21;88.43
18509;BME280;9383;50.928;12.116;2023-02-01T06:46:43;98606.38;;;3.22;88.40
18509;BME280;9383;50.928;12.116;2023-02-01T06:49:11;98609.84;;;3.24;88.34
18509;BME280;9383;50.928;12.116;2023-02-01T06:51:40;98611.59;;;3.27;88.27
18509;BME280;9383;50.928;12.116;2023-02-01T06:54:07;98615.94;;;3.30;87.99
18509;BME280;9383;50.928;12.116;2023-02-01T06:56:34;98608.94;;;3.30;87.72
18509;BME280;9383;50.928;12.116;2023-02-01T06:59:04;98605.41;;;3.33;87.66
18509;BME280;9383;50.928;12.116;2023-02-01T07:01:44;98611.50;;;3.35;87.56
18509;BME280;9383;50.928;12.116;2023-02-01T07:04:13;98597.50;;;3.36;87.69
18509;BME280;9383;50.928;12.116;2023-02-01T07:06:41;98607.06;;;3.40;86.08
18509;BME280;9383;50.928;12.116;2023-02-01T07:09:07;98614.03;;;3.41;86.28
18509;BME280;9383;50.928;12.116;2023-02-01T07:11:35;98608.78;;;3.43;86.17
18509;BME280;9383;50.928;12.116;2023-02-01T07:14:18;98602.66;;;3.45;86.58
18509;BME280;9383;50.928;12.116;2023-02-01T07:16:45;98600.88;;;3.47;85.58
18509;BME280;9383;50.928;12.116;2023-02-01T07:19:12;98609.59;;;3.49;85.13
18509;BME280;9383;50.928;12.116;2023-02-01T07:21:41;98612.16;;;3.52;84.64
18509;BME280;9383;50.928;12.116;2023-02-01T07:24:08;98611.25;;;3.55;84.27
18509;BME280;9383;50.928;12.116;2023-02-01T07:26:35;98604.25;;;3.59;84.21
18509;BME280;9383;50.928;12.116;2023-02-01T07:29:06;98600.72;;;3.61;83.43
18509;BME280;9383;50.928;12.116;2023-02-01T07:31:36;98602.41;;;3.64;83.29
18509;BME280;9383;50.928;12.116;2023-02-01T07:34:03;98596.28;;;3.66;82.93
18509;BME280;9383;50.928;12.116;2023-02-01T07:36:42;98598.00;;;3.69;83.04
18509;BME280;9383;50.928;12.116;2023-02-01T07:39:11;98590.09;;;3.72;82.38
18509;BME280;9383;50.928;12.116;2023-02-01T07:41:37;98597.03;;;3.76;82.12
18509;BME280;9383;50.928;12.116;2023-02-01T07:44:04;98590.00;;;3.78;82.16
18509;BME280;9383;50.928;12.116;2023-02-01T07:46:31;98602.25;;;3.79;81.86
18509;BME280;9383;50.928;12.116;2023-02-01T07:48:58;98582.13;;;3.82;82.11
18509;BME280;9383;50.928;12.116;2023-02-01T07:51:25;98582.97;;;3.84;81.59
18509;BME280;9383;50.928;12.116;2023-02-01T07:53:51;98587.31;;;3.85;81.39
18509;BME280;9383;50.928;12.116;2023-02-01T07:56:19;98588.16;;;3.87;81.51
18509;BME280;9383;50.928;12.116;2023-02-01T07:58:50;98593.34;;;3.90;80.85
18509;BME280;9383;50.928;12.116;2023-02-01T08:01:18;98591.56;;;3.93;81.09
18509;BME280;9383;50.928;12.116;2023-02-01T08:03:55;98583.69;;;3.95;81.15
18509;BME280;9383;50.928;12.116;2023-02-01T08:06:23;98594.13;;;3.98;81.35
18509;BME280;9383;50.928;12.116;2023-02-01T08:08:51;98594.13;;;4.00;82.03
18509;BME280;9383;50.928;12.116;2023-02-01T08:11:19;98602.84;;;4.00;82.85
18509;BME280;9383;50.928;12.116;2023-02-01T08:13:47;98607.19;;;4.01;83.96
18509;BME280;9383;50.928;12.116;2023-02-01T08:16:15;98608.06;;;4.02;84.03
18509;BME280;9383;50.928;12.116;2023-02-01T08:18:43;98612.41;;;4.03;84.70
18509;BME280;9383;50.928;12.116;2023-02-01T08:21:13;98607.19;;;4.01;85.09
18509;BME280;9383;50.928;12.116;2023-02-01T08:23:41;98609.84;;;4.00;85.72
18509;BME280;9383;50.928;12.116;2023-02-01T08:26:10;98595.88;;;3.98;86.27
18509;BME280;9383;50.928;12.116;2023-02-01T08:28:38;98596.75;;;3.98;86.85
18509;BME280;9383;50.928;12.116;2023-02-01T08:31:07;98595.00;;;3.97;86.99
18509;BME280;9383;50.928;12.116;2023-02-01T08:33:35;98599.38;;;3.98;87.00
18509;BME280;9383;50.928;12.116;2023-02-01T08:36:08;98612.47;;;3.98;87.22
18509;BME280;9383;50.928;12.116;2023-02-01T08:38:39;98604.66;;;3.95;85.92
18509;BME280;9383;50.928;12.116;2023-02-01T08:41:12;98603.78;;;3.94;86.26
18509;BME280;9383;50.928;12.116;2023-02-01T08:43:39;98599.38;;;3.97;86.01
18509;BME280;9383;50.928;12.116;2023-02-01T08:46:06;98607.28;;;3.95;86.24
18509;BME280;9383;50.928;12.116;2023-02-01T08:48:33;98604.63;;;3.98;85.49
18509;BME280;9383;50.928;12.116;2023-02-01T08:51:06;98601.09;;;3.99;85.36
18509;BME280;9383;50.928;12.116;2023-02-01T08:53:33;98617.66;;;4.03;85.13
18509;BME280;9383;50.928;12.116;2023-02-01T08:56:03;98615.88;;;4.05;85.46
18509;BME280;9383;50.928;12.116;2023-02-01T08:58:30;98595.78;;;4.05;84.74
18509;BME280;9383;50.928;12.116;2023-02-01T09:00:57;98606.22;;;4.08;84.15
18509;BME280;9383;50.928;12.116;2023-02-01T09:03:28;98609.69;;;4.09;84.97
18509;BME280;9383;50.928;12.116;2023-02-01T09:06:03;98612.25;;;4.14;84.89
18509;BME280;9383;50.928;12.116;2023-02-01T09:08:31;98609.63;;;4.15;85.21
18509;BME280;9383;50.928;12.116;2023-02-01T09:11:05;98613.09;;;4.17;84.37
18509;BME280;9383;50.928;12.116;2023-02-01T09:13:33;98616.56;;;4.19;84.44
18509;BME280;9383;50.928;12.116;2023-02-01T09:16:00;98621.75;;;4.24;83.63
18509;BME280;9383;50.928;12.116;2023-02-01T09:18:27;98626.03;;;4.28;84.02
18509;BME280;9383;50.928;12.116;2023-02-01T09:20:53;98627.75;;;4.31;84.89
18509;BME280;9383;50.928;12.116;2023-02-01T09:23:20;98634.69;;;4.36;84.98
18509;BME280;9383;50.928;12.116;2023-02-01T09:25:47;98632.00;;;4.40;85.00
18509;BME280;9383;50.928;12.116;2023-02-01T09:28:17;98635.47;;;4.43;84.41
18509;BME280;9383;50.928;12.116;2023-02-01T09:30:44;98643.31;;;4.45;84.89
18509;BME280;9383;50.928;12.116;2023-02-01T09:33:10;98630.13;;;4.48;84.33
18509;BME280;9383;50.928;12.116;2023-02-01T09:35:37;98639.75;;;4.49;85.70
18509;BME280;9383;50.928;12.116;2023-02-01T09:38:04;98645.88;;;4.49;86.22
18509;BME280;9383;50.928;12.116;2023-02-01T09:40:32;98641.47;;;4.50;85.85
18509;BME280;9383;50.928;12.116;2023-02-01T09:43:21;98646.72;;;4.50;85.60
18509;BME280;9383;50.928;12.116;2023-02-01T09:46:30;98641.44;;;4.53;85.43
18509;BME280;9383;50.928;12.116;2023-02-01T09:49:02;98654.53;;;4.55;85.14
18509;BME280;9383;50.928;12.116;2023-02-01T09:51:44;98653.63;;;4.57;86.09
18509;BME280;9383;50.928;12.116;2023-02-01T09:54:22;98665.88;;;4.58;84.90
18509;BME280;9383;50.928;12.116;2023-02-01T09:57:04;98661.44;;;4.60;83.92
18509;BME280;9383;50.928;12.116;2023-02-01T09:59:42;98654.41;;;4.62;83.62
18509;BME280;9383;50.928;12.116;2023-02-01T10:02:14;98643.84;;;4.65;82.85
18509;BME280;9383;50.928;12.116;2023-02-01T10:04:42;98669.19;;;4.70;83.40
18509;BME280;9383;50.928;12.116;2023-02-01T10:10:10;98676.97;;;4.76;82.45
18509;BME280;9383;50.928;12.116;2023-02-01T10:15:44;98656.72;;;4.83;79.95
18509;BME280;9383;50.928;12.116;2023-02-01T10:18:45;98660.16;;;4.88;79.06
18509;BME280;9383;50.928;12.116;2023-02-01T10:24:34;98666.22;;;4.91;79.89
18509;BME280;9383;50.928;12.116;2023-02-01T10:27:24;98674.09;;;4.91;81.50
18509;BME280;9383;50.928;12.116;2023-02-01T10:29:58;98688.94;;;4.92;81.69
18509;BME280;9383;50.928;12.116;2023-02-01T10:32:35;98679.38;;;4.90;82.51
18509;BME280;9383;50.928;12.116;2023-02-01T10:35:13;98681.13;;;4.89;82.72
18509;BME280;9383;50.928;12.116;2023-02-01T10:37:42;98682.91;;;4.87;82.19
18509;BME280;9383;50.928;12.116;2023-02-01T10:40:22;98669.78;;;4.89;82.42
18509;BME280;9383;50.928;12.116;2023-02-01T10:42:52;98660.16;;;4.86;83.46
18509;BME280;9383;50.928;12.116;2023-02-01T10:45:25;98656.72;;;4.84;83.53
18509;BME280;9383;50.928;12.116;2023-02-01T10:47:54;98649.69;;;4.85;84.08
18509;BME280;9383;50.928;12.116;2023-02-01T10:52:52;98657.53;;;4.88;83.19
18509;BME280;9383;50.928;12.116;2023-02-01T10:58:25;98632.06;;;4.91;81.62
18509;BME280;9383;50.928;12.116;2023-02-01T11:01:04;98639.88;;;4.96;82.15
18509;BME280;9383;50.928;12.116;2023-02-01T11:03:52;98649.41;;;5.02;81.61
18509;BME280;9383;50.928;12.116;2023-02-01T11:06:28;98660.72;;;5.07;80.37
18509;BME280;9383;50.928;12.116;2023-02-01T11:08:59;98653.63;;;5.12;80.62
18509;BME280;9383;50.928;12.116;2023-02-01T11:11:27;98651.81;;;5.16;81.04
18509;BME280;9383;50.928;12.116;2023-02-01T11:13:57;98638.53;;;5.22;80.70
18509;BME280;9383;50.928;12.116;2023-02-01T11:16:38;98656.84;;;5.27;79.82
18509;BME280;9383;50.928;12.116;2023-02-01T11:19:06;98643.66;;;5.30;79.81
18509;BME280;9383;50.928;12.116;2023-02-01T11:21:34;98647.09;;;5.35;78.12
18509;BME280;9383;50.928;12.116;2023-02-01T11:24:04;98641.75;;;5.38;77.38
18509;BME280;9383;50.928;12.116;2023-02-01T11:26:32;98626.81;;;5.42;78.71
18509;BME280;9383;50.928;12.116;2023-02-01T11:29:00;98631.97;;;5.46;78.46
18509;BME280;9383;50.928;12.116;2023-02-01T11:31:28;98630.13;;;5.52;77.64
18509;BME280;9383;50.928;12.116;2023-02-01T11:34:04;98631.78;;;5.56;77.34
18509;BME280;9383;50.928;12.116;2023-02-01T11:36:33;98634.31;;;5.60;77.40
18509;BME280;9383;50.928;12.116;2023-02-01T11:44:22;98615.72;;;5.71;75.82
18509;BME280;9383;50.928;12.116;2023-02-01T11:46:52;98618.28;;;5.73;74.81
18509;BME280;9383;50.928;12.116;2023-02-01T11:49:25;98627.00;;;5.75;74.72
18509;BME280;9383;50.928;12.116;2023-02-01T12:03:32;98607.56;;;5.84;73.45
18509;BME280;9383;50.928;12.116;2023-02-01T12:14:54;98631.16;;;5.88;70.71
18509;BME280;9383;50.928;12.116;2023-02-01T12:20:26;98616.19;;;5.90;71.67
18509;BME280;9383;50.928;12.116;2023-02-01T12:26:26;98494.28;;;5.52;71.76
18509;BME280;9383;50.928;12.116;2023-02-01T12:31:39;98614.50;;;5.88;70.83
18509;BME280;9383;50.928;12.116;2023-02-01T12:37:30;98596.06;;;5.89;71.98
18509;BME280;9383;50.928;12.116;2023-02-01T12:42:58;98605.69;;;5.90;72.40
18509;BME280;9383;50.928;12.116;2023-02-01T12:45:33;98597.78;;;5.90;71.72
18509;BME280;9383;50.928;12.116;2023-02-01T12:50:56;98593.38;;;5.91;72.20
18509;BME280;9383;50.928;12.116;2023-02-01T12:53:51;98594.19;;;5.93;72.91
18509;BME280;9383;50.928;12.116;2023-02-01T12:56:28;98581.00;;;5.96;72.63
18509;BME280;9383;50.928;12.116;2023-02-01T12:59:02;98579.13;;;6.00;72.94
18509;BME280;9383;50.928;12.116;2023-02-01T13:04:17;98573.94;;;5.98;70.60
18509;BME280;9383;50.928;12.116;2023-02-01T13:06:53;98584.47;;;5.97;70.42
18509;BME280;9383;50.928;12.116;2023-02-01T13:09:29;98581.03;;;5.95;71.18
18509;BME280;9383;50.928;12.116;2023-02-01T13:12:03;98579.28;;;5.95;70.89
18509;BME280;9383;50.928;12.116;2023-02-01T13:14:36;98569.66;;;5.93;70.95
18509;BME280;9383;50.928;12.116;2023-02-01T13:17:15;98564.47;;;5.89;70.72
18509;BME280;9383;50.928;12.116;2023-02-01T13:19:47;98544.28;;;5.90;71.77
18509;BME280;9383;50.928;12.116;2023-02-01T13:22:39;98544.38;;;5.87;70.23
18509;BME280;9383;50.928;12.116;2023-02-01T13:25:16;98553.19;;;5.84;70.26
18509;BME280;9383;50.928;12.116;2023-02-01T13:27:44;98553.22;;;5.83;69.78
18509;BME280;9383;50.928;12.116;2023-02-01T13:30:20;98548.91;;;5.80;69.69
18509;BME280;9383;50.928;12.116;2023-02-01T13:33:32;98535.72;;;5.82;70.93
18509;BME280;9383;50.928;12.116;2023-02-01T13:39:14;98526.03;;;5.82;70.72
18509;BME280;9383;50.928;12.116;2023-02-01T13:41:59;98530.47;;;5.82;70.89
18509;BME280;9383;50.928;12.116;2023-02-01T13:44:34;98526.94;;;5.81;71.20
18509;BME280;9383;50.928;12.116;2023-02-01T13:47:24;98520.03;;;5.77;70.25
18509;BME280;9383;50.928;12.116;2023-02-01T13:49:54;98514.81;;;5.74;70.47
18509;BME280;9383;50.928;12.116;2023-02-01T13:52:36;98520.06;;;5.75;71.40
18509;BME280;9383;50.928;12.116;2023-02-01T13:55:35;98502.56;;;5.74;71.57
18509;BME280;9383;50.928;12.116;2023-02-01T13:58:22;98511.34;;;5.73;72.21
18509;BME280;9383;50.928;12.116;2023-02-01T14:06:39;98498.22;;;5.72;71.62
18509;BME280;9383;50.928;12.116;2023-02-01T14:09:12;98502.63;;;5.71;72.11
18509;BME280;9383;50.928;12.116;2023-02-01T14:11:52;98497.38;;;5.71;71.60
18509;BME280;9383;50.928;12.116;2023-02-01T14:19:32;98507.06;;;5.69;72.23
18509;BME280;9383;50.928;12.116;2023-02-01T14:24:55;98494.75;;;5.71;71.61
18509;BME280;9383;50.928;12.116;2023-02-01T14:27:28;98486.84;;;5.71;71.42
18509;BME280;9383;50.928;12.116;2023-02-01T14:30:05;98489.44;;;5.73;72.23
18509;BME280;9383;50.928;12.116;2023-02-01T14:32:34;98481.59;;;5.71;71.51
18509;BME280;9383;50.928;12.116;2023-02-01T14:35:05;98476.34;;;5.71;70.81
18509;BME280;9383;50.928;12.116;2023-02-01T14:37:36;98465.84;;;5.70;70.56
18509;BME280;9383;50.928;12.116;2023-02-01T14:47:46;98447.53;;;5.65;71.03
18509;BME280;9383;50.928;12.116;2023-02-01T14:53:20;98444.06;;;5.63;70.57
18509;BME280;9383;50.928;12.116;2023-02-01T14:58:47;98453.88;;;5.55;69.22
18509;BME280;9383;50.928;12.116;2023-02-01T15:01:28;98460.03;;;5.54;69.47
18509;BME280;9383;50.928;12.116;2023-02-01T15:04:11;98431.22;;;5.51;69.41
18509;BME280;9383;50.928;12.116;2023-02-01T15:06:39;98439.06;;;5.52;69.53
18509;BME280;9383;50.928;12.116;2023-02-01T15:09:28;98443.44;;;5.52;69.43
18509;BME280;9383;50.928;12.116;2023-02-01T15:12:09;98432.94;;;5.52;69.29
18509;BME280;9383;50.928;12.116;2023-02-01T15:14:47;98453.97;;;5.52;69.22
18509;BME280;9383;50.928;12.116;2023-02-01T15:17:22;98455.69;;;5.53;69.02
18509;BME280;9383;50.928;12.116;2023-02-01T15:19:57;98436.44;;;5.52;68.82
18509;BME280;9383;50.928;12.116;2023-02-01T15:22:25;98433.00;;;5.50;68.51
18509;BME280;9383;50.928;12.116;2023-02-01T15:24:54;98426.88;;;5.48;68.30
18509;BME280;9383;50.928;12.116;2023-02-01T15:27:21;98418.06;;;5.51;68.28